Fountain Springs, Pennsylvania
Current Conditions -  °F | °C
As of 8:15 AM on Thursday 18 Dec 2014 (Local Time) from KHZL Reporting Station
Overcast Overcast  
Wind Chill: 23°   Ceiling: 2700
Heat Index: 32°   Visibility: 10mi
Dew Point: 21°   Wind: 13mph
Humidity: 64%   Direction: 290°WNW
Pressure: 30.01"   Gusts: 24mph
Location:  40.7564°N, 76.3531°W
Report Text: KHZL 181315Z AUTO 29011G21KT 260V320 10SM OVC027 00/M06 A3001 RMK AO2
Loading
Personal Weather Stations






























Interactive Weather Map New forecast layout! Learn more

10-Day Weather Forecast

Advertisements
Track Severe Weather on mobile